Time;durP1;ratioP1;P1;durP2;ratioP2;P2;SDS_P1;SDS_P2;PMS_P1;PMS_P2;Temp;Humidity;BMP_temperature;BMP_pressure;BME280_temperature;BME280_humidity;BME280_pressure;Samples;Min_cycle;Max_cycle;Signal;HPM_P1;HPM_P2
2022/05/25 00:00:15;;;;;;;;;4.75;1.25;;;;;;;;5054212;28;8797;-53
2022/05/25 00:02:59;;;;;;;;;5.75;1.50;;;;;;;;5056869;28;9532;-54
2022/05/25 00:05:43;;;;;;;;;1.00;1.00;;;;;;;;5054852;28;8801;-53
2022/05/25 00:08:28;;;;;;;;;4.00;1.00;;;;;;;;5051992;28;8777;-54
2022/05/25 00:11:12;;;;;;;;;1.00;0.00;;;;;;;;5057384;28;9550;-54
2022/05/25 00:13:56;;;;;;;;;1.75;1.00;;;;;;;;5055037;28;8794;-51
2022/05/25 00:16:41;;;;;;;;;0.75;0.75;;;;;;;;5063622;28;8793;-52
2022/05/25 00:22:58;;;;;;;;;3.75;0.00;;;;;;;;5056998;28;8793;-50
2022/05/25 00:25:42;;;;;;;;;2.50;0.50;;;;;;;;5046637;28;8840;-54
2022/05/25 00:28:26;;;;;;;;;1.00;1.00;;;;;;;;5055374;28;8820;-50
2022/05/25 00:31:12;;;;;;;;;1.25;0.75;;;;;;;;5072357;28;8806;-50
2022/05/25 00:33:57;;;;;;;;;2.75;0.50;;;;;;;;5061369;28;8810;-51
2022/05/25 00:36:41;;;;;;;;;2.00;0.00;;;;;;;;5055901;28;8808;-53
2022/05/25 00:39:25;;;;;;;;;2.25;0.75;;;;;;;;5058601;28;8802;-53
2022/05/25 00:42:10;;;;;;;;;4.00;2.25;;;;;;;;5049676;28;8789;-53
2022/05/25 00:44:54;;;;;;;;;5.75;1.50;;;;;;;;5047777;28;8998;-50
2022/05/25 00:47:40;;;;;;;;;2.25;1.00;;;;;;;;5051994;28;8781;-50
2022/05/25 00:50:24;;;;;;;;;1.75;1.50;;;;;;;;5055710;28;9573;-51
2022/05/25 00:53:09;;;;;;;;;1.00;1.00;;;;;;;;5054688;28;8789;-53
2022/05/25 00:55:54;;;;;;;;;4.75;2.00;;;;;;;;5050767;28;8796;-49
2022/05/25 00:58:39;;;;;;;;;1.00;0.25;;;;;;;;5056082;28;8789;-48
2022/05/25 01:01:24;;;;;;;;;1.00;1.00;;;;;;;;5062880;28;8810;-51
2022/05/25 01:04:09;;;;;;;;;3.00;1.50;;;;;;;;5056498;28;8804;-53
2022/05/25 01:07:11;;;;;;;;;0.75;0.00;;;;;;;;5056784;28;8807;-53
2022/05/25 01:10:17;;;;;;;;;2.00;1.00;;;;;;;;5063689;28;8903;-50
2022/05/25 01:13:01;;;;;;;;;0.25;0.00;;;;;;;;5055194;28;8805;-51
2022/05/25 01:15:53;;;;;;;;;1.75;1.00;;;;;;;;5068499;28;8815;-51
2022/05/25 01:18:57;;;;;;;;;4.50;0.75;;;;;;;;5050756;28;8800;-52
2022/05/25 01:21:49;;;;;;;;;3.75;1.75;;;;;;;;5053899;28;8804;-53
2022/05/25 01:24:33;;;;;;;;;1.00;0.75;;;;;;;;5054862;28;8812;-53
2022/05/25 01:27:42;;;;;;;;;2.00;1.00;;;;;;;;5052691;28;8792;-51
2022/05/25 01:30:38;;;;;;;;;2.50;0.75;;;;;;;;5055221;28;8828;-52
2022/05/25 01:33:29;;;;;;;;;1.75;0.50;;;;;;;;5052154;28;8789;-52
2022/05/25 01:36:32;;;;;;;;;3.50;2.00;;;;;;;;5054211;28;8804;-52
2022/05/25 01:39:21;;;;;;;;;0.00;0.00;;;;;;;;5055035;28;8800;-49
2022/05/25 01:42:09;;;;;;;;;3.50;1.00;;;;;;;;5055186;28;8809;-54
2022/05/25 01:44:57;;;;;;;;;2.50;0.00;;;;;;;;5052371;28;9517;-51
2022/05/25 01:47:43;;;;;;;;;1.00;1.00;;;;;;;;5055349;28;8788;-51
2022/05/25 01:50:38;;;;;;;;;2.00;1.75;;;;;;;;5053862;28;8812;-52
2022/05/25 01:53:27;;;;;;;;;0.25;0.00;;;;;;;;5049177;28;8806;-51
2022/05/25 01:56:13;;;;;;;;;3.75;0.50;;;;;;;;5054082;28;8938;-50
2022/05/25 01:59:01;;;;;;;;;4.00;1.50;;;;;;;;5052320;28;8797;-50
2022/05/25 02:01:48;;;;;;;;;0.00;0.00;;;;;;;;5050424;28;8812;-48
2022/05/25 02:04:33;;;;;;;;;0.00;0.00;;;;;;;;5056509;28;8809;-50
2022/05/25 02:07:38;;;;;;;;;0.75;0.75;;;;;;;;5056319;28;8792;-51
2022/05/25 02:10:39;;;;;;;;;0.50;0.50;;;;;;;;5045929;28;8835;-51
2022/05/25 02:13:27;;;;;;;;;2.25;0.00;;;;;;;;5046765;28;8788;-53
2022/05/25 02:16:29;;;;;;;;;0.00;0.00;;;;;;;;5053113;28;8808;-51
2022/05/25 02:19:27;;;;;;;;;1.50;0.00;;;;;;;;5054827;28;8832;-51
2022/05/25 02:22:19;;;;;;;;;0.00;0.00;;;;;;;;5051698;28;9604;-54
2022/05/25 02:25:22;;;;;;;;;0.75;0.50;;;;;;;;5054117;28;9107;-53
2022/05/25 02:28:09;;;;;;;;;1.00;1.00;;;;;;;;5049658;28;8808;-50
2022/05/25 02:30:56;;;;;;;;;3.00;0.50;;;;;;;;5054419;28;8948;-53
2022/05/25 02:33:42;;;;;;;;;1.75;0.50;;;;;;;;5052782;28;8797;-52
2022/05/25 02:36:28;;;;;;;;;3.75;1.00;;;;;;;;5052710;28;8796;-52
2022/05/25 02:39:12;;;;;;;;;1.25;0.00;;;;;;;;5052170;28;8785;-53
2022/05/25 02:41:57;;;;;;;;;2.75;0.75;;;;;;;;5048343;28;9014;-51
2022/05/25 02:44:42;;;;;;;;;6.50;1.75;;;;;;;;5055305;28;8804;-54
2022/05/25 02:47:26;;;;;;;;;2.00;1.00;;;;;;;;5054614;28;8796;-52
2022/05/25 02:50:10;;;;;;;;;2.25;2.25;;;;;;;;5055181;28;8954;-53
2022/05/25 02:52:56;;;;;;;;;4.75;3.25;;;;;;;;5055161;28;8793;-52
2022/05/25 02:55:40;;;;;;;;;5.75;4.00;;;;;;;;5053793;28;9585;-51
2022/05/25 02:58:25;;;;;;;;;6.75;4.50;;;;;;;;5054558;28;8785;-52
2022/05/25 03:01:09;;;;;;;;;9.00;6.25;;;;;;;;5053503;28;8808;-51
2022/05/25 03:03:53;;;;;;;;;10.00;7.00;;;;;;;;5047414;28;9532;-54
2022/05/25 03:06:38;;;;;;;;;9.00;7.50;;;;;;;;5051071;28;8808;-53
2022/05/25 03:09:22;;;;;;;;;13.00;9.75;;;;;;;;5055129;28;8821;-51
2022/05/25 03:12:07;;;;;;;;;12.50;10.00;;;;;;;;5058352;28;9572;-50
2022/05/25 03:14:52;;;;;;;;;16.25;10.00;;;;;;;;5053822;28;8885;-52
2022/05/25 03:17:36;;;;;;;;;16.75;12.25;;;;;;;;5055975;28;8799;-52
2022/05/25 03:20:21;;;;;;;;;14.00;13.25;;;;;;;;5056920;28;9566;-53
2022/05/25 03:23:05;;;;;;;;;16.00;12.00;;;;;;;;5063951;28;8789;-52
2022/05/25 03:25:49;;;;;;;;;18.50;15.25;;;;;;;;5055508;28;8773;-50
2022/05/25 03:28:34;;;;;;;;;17.25;16.00;;;;;;;;5057692;28;9532;-54
2022/05/25 03:31:18;;;;;;;;;13.50;11.50;;;;;;;;5052239;28;8812;-50
2022/05/25 03:34:03;;;;;;;;;13.25;13.25;;;;;;;;5063048;28;8794;-48
2022/05/25 03:36:47;;;;;;;;;15.75;12.25;;;;;;;;5065985;28;8777;-50
2022/05/25 03:39:33;;;;;;;;;12.50;11.50;;;;;;;;5053253;28;8785;-50
2022/05/25 03:42:19;;;;;;;;;16.50;11.75;;;;;;;;5054128;28;8812;-51
2022/05/25 03:45:04;;;;;;;;;17.75;13.75;;;;;;;;5057789;28;8931;-54
2022/05/25 03:47:48;;;;;;;;;17.75;15.00;;;;;;;;5055355;28;8793;-52
2022/05/25 03:50:34;;;;;;;;;15.00;13.50;;;;;;;;5054434;28;8812;-52
2022/05/25 03:53:18;;;;;;;;;19.50;16.50;;;;;;;;5057549;28;8785;-53
2022/05/25 03:56:05;;;;;;;;;17.25;15.75;;;;;;;;5044181;28;8772;-54
2022/05/25 03:58:49;;;;;;;;;17.50;16.00;;;;;;;;5055573;28;8773;-52
2022/05/25 04:01:35;;;;;;;;;18.25;16.75;;;;;;;;5072933;28;8816;-54
2022/05/25 04:04:19;;;;;;;;;25.75;21.75;;;;;;;;5065313;28;8895;-53
2022/05/25 04:07:04;;;;;;;;;28.25;26.50;;;;;;;;5056893;28;8791;-52
2022/05/25 04:09:48;;;;;;;;;26.50;25.00;;;;;;;;5052499;28;8795;-52
2022/05/25 04:12:33;;;;;;;;;23.75;18.50;;;;;;;;5050858;28;8780;-53
2022/05/25 04:15:20;;;;;;;;;23.00;20.50;;;;;;;;5046966;28;9460;-53
2022/05/25 04:18:04;;;;;;;;;25.50;23.00;;;;;;;;5052117;28;8909;-49
2022/05/25 04:20:48;;;;;;;;;24.00;23.25;;;;;;;;5058478;28;8785;-53
2022/05/25 04:23:34;;;;;;;;;27.50;22.75;;;;;;;;5057198;28;8800;-51
2022/05/25 04:26:18;;;;;;;;;28.50;23.50;;;;;;;;5071619;28;8789;-52
2022/05/25 04:29:03;;;;;;;;;24.25;23.50;;;;;;;;5058742;28;8741;-51
2022/05/25 04:31:47;;;;;;;;;28.75;26.00;;;;;;;;5050972;28;8809;-50
2022/05/25 04:34:32;;;;;;;;;28.50;27.75;;;;;;;;5053946;28;8792;-53
2022/05/25 04:40:26;;;;;;;;;31.75;28.50;;;;;;;;5052348;28;9698;-51
2022/05/25 04:43:15;;;;;;;;;27.75;26.00;;;;;;;;5052522;28;8788;-50
2022/05/25 04:46:01;;;;;;;;;34.50;26.25;;;;;;;;5048915;28;8801;-48
2022/05/25 04:48:46;;;;;;;;;29.25;26.75;;;;;;;;5049894;28;9603;-51
2022/05/25 04:51:30;;;;;;;;;26.25;23.50;;;;;;;;5053126;28;8820;-53
2022/05/25 04:54:15;;;;;;;;;32.25;29.50;;;;;;;;5049363;28;9642;-51
2022/05/25 05:00:04;;;;;;;;;24.00;23.50;;;;;;;;5051655;28;8789;-52
2022/05/25 05:02:48;;;;;;;;;21.00;19.00;;;;;;;;5052589;28;8802;-54
2022/05/25 05:05:33;;;;;;;;;21.50;19.00;;;;;;;;5051065;28;8792;-50
2022/05/25 05:08:17;;;;;;;;;27.75;25.75;;;;;;;;5074502;28;8806;-53
2022/05/25 05:11:09;;;;;;;;;31.25;28.75;;;;;;;;5058755;28;8798;-53
2022/05/25 05:13:53;;;;;;;;;34.50;28.50;;;;;;;;5052728;28;8792;-51
2022/05/25 05:16:38;;;;;;;;;38.00;30.50;;;;;;;;5056409;28;8777;-53
2022/05/25 05:19:23;;;;;;;;;34.00;30.00;;;;;;;;5050983;28;8771;-53
2022/05/25 05:22:07;;;;;;;;;36.00;30.50;;;;;;;;5047502;28;8801;-54
2022/05/25 05:24:52;;;;;;;;;33.50;30.00;;;;;;;;5054130;28;8774;-55
2022/05/25 05:27:36;;;;;;;;;30.50;28.75;;;;;;;;5060806;28;8781;-53
2022/05/25 05:30:22;;;;;;;;;28.00;24.00;;;;;;;;5052313;28;8817;-53
2022/05/25 05:33:06;;;;;;;;;31.75;23.50;;;;;;;;5053221;28;8914;-51
2022/05/25 05:35:54;;;;;;;;;27.25;25.00;;;;;;;;5053371;28;8816;-53
2022/05/25 05:38:43;;;;;;;;;29.50;27.50;;;;;;;;5049484;28;9619;-52
2022/05/25 05:41:30;;;;;;;;;31.00;28.25;;;;;;;;5054419;28;8812;-52
2022/05/25 05:44:17;;;;;;;;;36.25;28.25;;;;;;;;5052299;28;8795;-50
2022/05/25 05:47:02;;;;;;;;;29.75;27.25;;;;;;;;5054882;28;8784;-51
2022/05/25 05:49:47;;;;;;;;;35.25;32.00;;;;;;;;5048565;28;8927;-54
2022/05/25 05:52:33;;;;;;;;;41.25;33.25;;;;;;;;5053844;28;8796;-50
2022/05/25 05:55:18;;;;;;;;;36.50;30.75;;;;;;;;5050125;28;8775;-51
2022/05/25 05:58:03;;;;;;;;;33.75;31.25;;;;;;;;5043556;28;8795;-52
2022/05/25 06:00:47;;;;;;;;;39.75;32.50;;;;;;;;5041209;28;8824;-52
2022/05/25 06:03:32;;;;;;;;;31.75;26.75;;;;;;;;5069166;28;8800;-52
2022/05/25 06:06:16;;;;;;;;;37.00;29.75;;;;;;;;5054123;28;8808;-54
2022/05/25 06:09:01;;;;;;;;;34.00;29.00;;;;;;;;5050259;28;9576;-52
2022/05/25 06:11:45;;;;;;;;;42.75;32.50;;;;;;;;5054780;28;9385;-52
2022/05/25 06:14:30;;;;;;;;;44.50;34.00;;;;;;;;5053209;28;9572;-52
2022/05/25 06:20:17;;;;;;;;;48.25;37.25;;;;;;;;5048640;28;8823;-52
2022/05/25 06:23:02;;;;;;;;;48.50;38.25;;;;;;;;5044835;28;8772;-53
2022/05/25 06:25:47;;;;;;;;;54.00;42.75;;;;;;;;5055472;28;8805;-54
2022/05/25 06:28:31;;;;;;;;;46.75;37.00;;;;;;;;5047787;28;8780;-52
2022/05/25 06:31:15;;;;;;;;;46.75;34.00;;;;;;;;5051471;28;9560;-55
2022/05/25 06:34:00;;;;;;;;;48.00;36.50;;;;;;;;5054151;28;8796;-52
2022/05/25 06:36:46;;;;;;;;;51.25;36.25;;;;;;;;5057163;28;8800;-54
2022/05/25 06:39:34;;;;;;;;;43.50;33.00;;;;;;;;5067115;28;8802;-54
2022/05/25 06:42:18;;;;;;;;;46.00;34.25;;;;;;;;5048622;28;8824;-52
2022/05/25 06:45:03;;;;;;;;;41.50;35.25;;;;;;;;5050807;28;8801;-52
2022/05/25 06:47:47;;;;;;;;;44.50;33.00;;;;;;;;5055186;28;8814;-53
2022/05/25 06:50:32;;;;;;;;;45.00;36.50;;;;;;;;5050440;28;8806;-52
2022/05/25 06:53:16;;;;;;;;;44.00;35.75;;;;;;;;5058298;28;8791;-54
2022/05/25 06:56:01;;;;;;;;;41.50;35.25;;;;;;;;5072966;28;8774;-53
2022/05/25 06:58:45;;;;;;;;;41.75;35.00;;;;;;;;5073049;28;9573;-51
2022/05/25 07:01:30;;;;;;;;;41.25;29.75;;;;;;;;5055665;28;8792;-53
2022/05/25 07:04:14;;;;;;;;;33.25;30.75;;;;;;;;5054725;28;8797;-53
2022/05/25 07:07:01;;;;;;;;;43.50;34.75;;;;;;;;5058255;28;8777;-52
2022/05/25 07:09:45;;;;;;;;;37.00;31.00;;;;;;;;5054398;28;8785;-52
2022/05/25 07:12:31;;;;;;;;;42.50;32.75;;;;;;;;5071658;28;8826;-52
2022/05/25 07:15:15;;;;;;;;;45.25;32.25;;;;;;;;5050046;28;8800;-51
2022/05/25 07:18:00;;;;;;;;;38.00;32.50;;;;;;;;5055758;28;8804;-53
2022/05/25 07:20:44;;;;;;;;;41.25;32.00;;;;;;;;5058847;28;8817;-52
2022/05/25 07:23:31;;;;;;;;;37.50;31.00;;;;;;;;5056069;28;8784;-54
2022/05/25 07:26:16;;;;;;;;;39.25;32.50;;;;;;;;5056020;28;8808;-53
2022/05/25 07:29:00;;;;;;;;;44.50;33.00;;;;;;;;5072517;28;8798;-53
2022/05/25 07:31:48;;;;;;;;;48.25;39.00;;;;;;;;5075905;28;8928;-50
2022/05/25 07:34:47;;;;;;;;;42.75;32.50;;;;;;;;5076341;28;8774;-53
2022/05/25 07:37:37;;;;;;;;;39.25;31.75;;;;;;;;5055680;28;8781;-50
2022/05/25 07:40:28;;;;;;;;;40.75;33.50;;;;;;;;5055751;28;8804;-51
2022/05/25 07:43:18;;;;;;;;;46.75;38.00;;;;;;;;5056030;28;8781;-52
2022/05/25 07:46:02;;;;;;;;;48.75;37.25;;;;;;;;5071311;28;9529;-52
2022/05/25 07:48:48;;;;;;;;;48.25;37.25;;;;;;;;5076188;28;8770;-51
2022/05/25 07:51:33;;;;;;;;;47.75;35.75;;;;;;;;5076626;28;8762;-53
2022/05/25 07:54:17;;;;;;;;;38.50;32.00;;;;;;;;5062996;28;9566;-54
2022/05/25 07:57:02;;;;;;;;;42.50;32.25;;;;;;;;5061763;28;8785;-53
2022/05/25 07:59:46;;;;;;;;;32.25;28.50;;;;;;;;5058434;28;8776;-54
2022/05/25 08:05:48;;;;;;;;;42.25;32.75;;;;;;;;5079328;28;8798;-53
2022/05/25 08:08:32;;;;;;;;;34.75;29.00;;;;;;;;5079068;28;8790;-53
2022/05/25 08:11:17;;;;;;;;;43.50;33.25;;;;;;;;5079252;28;9569;-53
2022/05/25 08:14:02;;;;;;;;;38.75;33.00;;;;;;;;5079125;28;8770;-52
2022/05/25 08:16:46;;;;;;;;;39.50;31.25;;;;;;;;5066875;28;8737;-54
2022/05/25 08:19:31;;;;;;;;;33.75;29.00;;;;;;;;5071654;28;8798;-51
2022/05/25 08:22:15;;;;;;;;;35.00;26.00;;;;;;;;5056034;28;8824;-54
2022/05/25 08:25:00;;;;;;;;;30.75;28.25;;;;;;;;5058597;28;8789;-53
2022/05/25 08:27:44;;;;;;;;;32.75;27.00;;;;;;;;5053490;28;8796;-52
2022/05/25 08:30:29;;;;;;;;;29.00;27.00;;;;;;;;5051858;28;8813;-53
2022/05/25 08:33:15;;;;;;;;;29.25;25.50;;;;;;;;5056290;28;8812;-53
2022/05/25 08:36:00;;;;;;;;;30.25;28.00;;;;;;;;5052912;28;8800;-54
2022/05/25 08:38:44;;;;;;;;;30.00;21.25;;;;;;;;5055343;28;8810;-53
2022/05/25 08:41:33;;;;;;;;;34.50;24.25;;;;;;;;5051832;28;8828;-51
2022/05/25 08:44:19;;;;;;;;;24.25;20.00;;;;;;;;5053993;28;8789;-54
2022/05/25 08:47:05;;;;;;;;;20.50;15.25;;;;;;;;5062290;28;8808;-55
2022/05/25 08:49:51;;;;;;;;;28.75;20.50;;;;;;;;5055965;28;8790;-52
2022/05/25 08:52:36;;;;;;;;;18.50;17.50;;;;;;;;5057924;28;9388;-54
2022/05/25 08:55:27;;;;;;;;;28.75;22.25;;;;;;;;5048362;28;9616;-54
2022/05/25 08:58:12;;;;;;;;;29.00;21.00;;;;;;;;5053558;28;9255;-53
2022/05/25 09:00:58;;;;;;;;;22.75;20.25;;;;;;;;5050077;28;8812;-52
2022/05/25 09:03:54;;;;;;;;;22.25;17.50;;;;;;;;5056908;28;8808;-54
2022/05/25 09:06:48;;;;;;;;;34.50;24.50;;;;;;;;5070903;28;8796;-53
2022/05/25 09:09:41;;;;;;;;;18.50;16.75;;;;;;;;5044257;28;9572;-50
2022/05/25 09:12:36;;;;;;;;;20.00;17.25;;;;;;;;5045028;28;8839;-52
2022/05/25 09:15:23;;;;;;;;;17.75;15.75;;;;;;;;5049250;28;8801;-54
2022/05/25 09:18:17;;;;;;;;;24.50;18.00;;;;;;;;5050442;28;8799;-51
2022/05/25 09:21:03;;;;;;;;;22.00;18.25;;;;;;;;5054213;28;8793;-52
2022/05/25 09:23:49;;;;;;;;;13.00;13.00;;;;;;;;5054435;28;8797;-51
2022/05/25 09:26:33;;;;;;;;;17.50;14.50;;;;;;;;5051361;28;8793;-54
2022/05/25 09:29:18;;;;;;;;;10.25;5.50;;;;;;;;5046072;28;8783;-50
2022/05/25 09:32:21;;;;;;;;;15.00;11.75;;;;;;;;5046471;28;8799;-55
2022/05/25 09:35:12;;;;;;;;;11.50;11.00;;;;;;;;5053229;28;8760;-52
2022/05/25 09:38:09;;;;;;;;;18.50;13.50;;;;;;;;5071873;28;8794;-54
2022/05/25 09:40:53;;;;;;;;;19.00;12.50;;;;;;;;5059939;28;8810;-52
2022/05/25 09:43:38;;;;;;;;;14.50;13.00;;;;;;;;5048369;28;8788;-52
2022/05/25 09:46:24;;;;;;;;;15.25;11.25;;;;;;;;5064741;28;8786;-50
2022/05/25 09:49:11;;;;;;;;;13.25;10.00;;;;;;;;5066573;28;8793;-53
2022/05/25 09:51:58;;;;;;;;;14.50;9.00;;;;;;;;5066877;28;8822;-51
2022/05/25 09:54:46;;;;;;;;;12.00;10.25;;;;;;;;5072636;28;9561;-53
2022/05/25 09:57:36;;;;;;;;;12.75;10.75;;;;;;;;5058708;28;8792;-54
2022/05/25 10:00:22;;;;;;;;;14.50;10.75;;;;;;;;5066212;28;8782;-54
2022/05/25 10:03:22;;;;;;;;;15.75;10.50;;;;;;;;5060046;28;8848;-53
2022/05/25 10:06:21;;;;;;;;;10.00;9.50;;;;;;;;5054774;28;8769;-52
2022/05/25 10:09:11;;;;;;;;;12.50;10.00;;;;;;;;5059751;28;8806;-54
2022/05/25 10:11:57;;;;;;;;;15.00;11.25;;;;;;;;5053524;28;8860;-54
2022/05/25 10:14:53;;;;;;;;;10.00;6.75;;;;;;;;5054840;28;8805;-53
2022/05/25 10:17:41;;;;;;;;;10.25;8.00;;;;;;;;5054535;28;8789;-54
2022/05/25 10:20:30;;;;;;;;;8.00;6.25;;;;;;;;5074424;28;8798;-52
2022/05/25 10:23:22;;;;;;;;;10.00;7.00;;;;;;;;5064330;28;8800;-53
2022/05/25 10:26:11;;;;;;;;;6.25;5.25;;;;;;;;5057212;28;8778;-54
2022/05/25 10:28:57;;;;;;;;;25.75;19.50;;;;;;;;5064964;28;8796;-55
2022/05/25 10:37:52;;;;;;;;;17.25;15.00;;;;;;;;5058778;28;8794;-52
2022/05/25 10:40:41;;;;;;;;;17.50;14.25;;;;;;;;5061682;28;8804;-54
2022/05/25 10:43:30;;;;;;;;;19.00;13.25;;;;;;;;5057316;28;8796;-54
2022/05/25 10:46:14;;;;;;;;;36.00;30.50;;;;;;;;5054954;28;8911;-53
2022/05/25 10:49:17;;;;;;;;;35.50;29.25;;;;;;;;5058733;28;8904;-52
2022/05/25 10:52:20;;;;;;;;;23.50;18.75;;;;;;;;5058738;28;8800;-52
2022/05/25 10:55:05;;;;;;;;;9.00;6.00;;;;;;;;5054766;28;8805;-54
2022/05/25 10:58:15;;;;;;;;;16.50;11.25;;;;;;;;5045591;28;8789;-57
2022/05/25 11:00:59;;;;;;;;;23.25;18.75;;;;;;;;5051278;28;8812;-53
2022/05/25 11:03:59;;;;;;;;;14.00;13.75;;;;;;;;5055351;28;8804;-54
2022/05/25 11:07:09;;;;;;;;;11.50;9.25;;;;;;;;5066518;28;8932;-54
2022/05/25 11:10:12;;;;;;;;;7.75;6.25;;;;;;;;5052061;28;8793;-53
2022/05/25 11:13:09;;;;;;;;;12.50;10.25;;;;;;;;5055091;28;8804;-56
2022/05/25 11:15:53;;;;;;;;;13.00;9.00;;;;;;;;5051797;28;9070;-55
2022/05/25 11:18:47;;;;;;;;;7.25;3.75;;;;;;;;5049390;28;8791;-53
2022/05/25 11:21:41;;;;;;;;;3.50;2.00;;;;;;;;5047966;28;9560;-54
2022/05/25 11:24:25;;;;;;;;;1.50;0.25;;;;;;;;5048228;28;8792;-52
2022/05/25 11:27:29;;;;;;;;;3.50;1.00;;;;;;;;5067275;28;8778;-53
2022/05/25 11:30:13;;;;;;;;;2.00;2.00;;;;;;;;5052902;28;8785;-54
2022/05/25 11:33:01;;;;;;;;;3.25;1.50;;;;;;;;5056525;28;8721;-54
2022/05/25 11:35:46;;;;;;;;;5.75;4.50;;;;;;;;5067218;28;8773;-54
2022/05/25 11:38:32;;;;;;;;;5.50;3.00;;;;;;;;5067558;28;8758;-56
2022/05/25 11:41:32;;;;;;;;;9.00;5.00;;;;;;;;5054124;28;8805;-55
2022/05/25 11:44:23;;;;;;;;;17.50;13.25;;;;;;;;5054094;28;8788;-55
2022/05/25 11:47:15;;;;;;;;;9.00;6.25;;;;;;;;5061879;28;9534;-55
2022/05/25 11:50:03;;;;;;;;;6.25;4.00;;;;;;;;5060685;28;8789;-56
2022/05/25 11:52:52;;;;;;;;;6.75;5.50;;;;;;;;5060325;28;8812;-55
2022/05/25 11:55:36;;;;;;;;;3.00;2.00;;;;;;;;5056004;28;8788;-55
2022/05/25 11:58:31;;;;;;;;;2.25;1.75;;;;;;;;5058002;28;8808;-54
2022/05/25 12:01:24;;;;;;;;;4.25;2.75;;;;;;;;5060686;28;8796;-55
2022/05/25 12:04:08;;;;;;;;;3.00;1.50;;;;;;;;5056620;28;8793;-56
2022/05/25 12:06:59;;;;;;;;;1.75;1.25;;;;;;;;5053311;28;8777;-56
2022/05/25 12:09:44;;;;;;;;;2.75;1.00;;;;;;;;5053071;28;8776;-54
2022/05/25 12:12:41;;;;;;;;;2.00;0.75;;;;;;;;5050459;28;8828;-55
2022/05/25 12:15:31;;;;;;;;;2.00;0.50;;;;;;;;5066913;28;8781;-54
2022/05/25 12:18:16;;;;;;;;;3.75;0.50;;;;;;;;5053770;28;8769;-54
2022/05/25 12:21:20;;;;;;;;;2.25;0.00;;;;;;;;5062757;28;8784;-55
2022/05/25 12:24:07;;;;;;;;;1.50;1.00;;;;;;;;5049425;28;8788;-55
2022/05/25 12:26:52;;;;;;;;;4.75;2.25;;;;;;;;5057204;28;8792;-55
2022/05/25 12:29:39;;;;;;;;;1.25;1.25;;;;;;;;5061075;28;9538;-55
2022/05/25 12:32:24;;;;;;;;;2.50;0.25;;;;;;;;5052835;28;8806;-54
2022/05/25 12:35:11;;;;;;;;;3.00;3.00;;;;;;;;5063723;28;8794;-55
2022/05/25 12:37:55;;;;;;;;;3.75;1.75;;;;;;;;5053191;28;8918;-55
2022/05/25 12:40:41;;;;;;;;;1.50;1.00;;;;;;;;5066761;28;8788;-55
2022/05/25 12:43:35;;;;;;;;;4.75;2.00;;;;;;;;5058740;28;8764;-54
2022/05/25 12:49:45;;;;;;;;;4.00;0.50;;;;;;;;5059663;28;8790;-54
2022/05/25 12:52:30;;;;;;;;;3.75;0.75;;;;;;;;5050223;28;9543;-54
2022/05/25 12:55:27;;;;;;;;;3.25;1.75;;;;;;;;5049621;28;8815;-54
2022/05/25 12:58:30;;;;;;;;;2.00;0.25;;;;;;;;5050601;28;8785;-53
2022/05/25 13:01:14;;;;;;;;;6.25;5.25;;;;;;;;5047566;28;8809;-52
2022/05/25 13:03:59;;;;;;;;;0.00;0.00;;;;;;;;5053061;28;8781;-53
2022/05/25 13:06:43;;;;;;;;;2.00;0.00;;;;;;;;5046658;28;8805;-54
2022/05/25 13:09:30;;;;;;;;;1.25;0.50;;;;;;;;5052120;28;8777;-54
2022/05/25 13:12:33;;;;;;;;;5.25;0.25;;;;;;;;5051576;28;8821;-54
2022/05/25 13:15:19;;;;;;;;;1.00;1.00;;;;;;;;5050900;28;8800;-53
2022/05/25 13:18:04;;;;;;;;;3.00;1.50;;;;;;;;5048841;28;8804;-53
2022/05/25 13:20:51;;;;;;;;;4.25;2.00;;;;;;;;5053622;28;8796;-52
2022/05/25 13:23:55;;;;;;;;;3.50;0.75;;;;;;;;5056629;28;8797;-54
2022/05/25 13:26:51;;;;;;;;;1.00;0.75;;;;;;;;5054228;28;8799;-54
2022/05/25 13:29:53;;;;;;;;;1.75;1.75;;;;;;;;5050249;28;8785;-54
2022/05/25 13:32:58;;;;;;;;;0.00;0.00;;;;;;;;5051576;28;8804;-54
2022/05/25 13:36:02;;;;;;;;;2.00;0.00;;;;;;;;5053655;28;8789;-54
2022/05/25 13:38:46;;;;;;;;;3.25;1.75;;;;;;;;5067862;28;8789;-54
2022/05/25 13:41:34;;;;;;;;;4.50;1.00;;;;;;;;5056851;28;8820;-54
2022/05/25 13:44:20;;;;;;;;;2.00;2.00;;;;;;;;5052497;28;8784;-53
2022/05/25 13:47:04;;;;;;;;;2.00;0.50;;;;;;;;5056310;28;8793;-53
2022/05/25 13:49:55;;;;;;;;;1.00;1.00;;;;;;;;5055775;28;8777;-54
2022/05/25 13:52:45;;;;;;;;;0.00;0.00;;;;;;;;5075508;28;8837;-54
2022/05/25 13:55:32;;;;;;;;;2.00;2.00;;;;;;;;5067058;28;8774;-54
2022/05/25 13:58:19;;;;;;;;;3.00;3.00;;;;;;;;5046058;28;8910;-54
2022/05/25 14:01:08;;;;;;;;;2.00;0.00;;;;;;;;5055698;28;8777;-54
2022/05/25 14:03:56;;;;;;;;;4.00;1.75;;;;;;;;5055987;28;8797;-53
2022/05/25 14:06:41;;;;;;;;;2.25;1.75;;;;;;;;5052524;28;8785;-54
2022/05/25 14:12:31;;;;;;;;;3.00;2.00;;;;;;;;5054581;28;9568;-54
2022/05/25 14:15:20;;;;;;;;;1.25;1.00;;;;;;;;5054815;28;8824;-54
2022/05/25 14:18:04;;;;;;;;;1.25;1.25;;;;;;;;5056663;28;8796;-53
2022/05/25 14:20:48;;;;;;;;;4.50;3.00;;;;;;;;5054629;28;8808;-53
2022/05/25 14:23:34;;;;;;;;;0.50;0.00;;;;;;;;5068128;28;8782;-52
2022/05/25 14:26:26;;;;;;;;;1.00;1.00;;;;;;;;5076558;28;8805;-55
2022/05/25 14:29:13;;;;;;;;;1.00;1.00;;;;;;;;5065069;28;8819;-54
2022/05/25 14:32:13;;;;;;;;;0.25;0.25;;;;;;;;5053717;28;8809;-51
2022/05/25 14:35:06;;;;;;;;;2.50;1.75;;;;;;;;5053342;28;8917;-53
2022/05/25 14:37:50;;;;;;;;;0.00;0.00;;;;;;;;5051300;28;9572;-51
2022/05/25 14:40:44;;;;;;;;;0.25;0.25;;;;;;;;5069137;28;8966;-54
2022/05/25 14:43:39;;;;;;;;;2.00;1.00;;;;;;;;5072549;28;8778;-54
2022/05/25 14:46:28;;;;;;;;;0.25;0.25;;;;;;;;5054285;28;8780;-53
2022/05/25 14:49:16;;;;;;;;;2.50;2.00;;;;;;;;5048207;28;8825;-54
2022/05/25 14:52:00;;;;;;;;;1.00;0.00;;;;;;;;5051671;28;8808;-53
2022/05/25 14:54:45;;;;;;;;;48.25;39.25;;;;;;;;5054749;28;8801;-52
2022/05/25 14:57:29;;;;;;;;;38.00;30.75;;;;;;;;5054060;28;8792;-53
2022/05/25 15:00:13;;;;;;;;;20.25;17.50;;;;;;;;5076359;28;8932;-54
2022/05/25 15:02:59;;;;;;;;;15.25;9.25;;;;;;;;5073870;28;8762;-52
2022/05/25 15:05:46;;;;;;;;;3.75;3.75;;;;;;;;5052861;28;8789;-53
2022/05/25 15:08:32;;;;;;;;;11.75;6.50;;;;;;;;5060347;28;8800;-53
2022/05/25 15:11:31;;;;;;;;;44.25;37.00;;;;;;;;5053403;28;8824;-53
2022/05/25 15:20:25;;;;;;;;;22.50;17.75;;;;;;;;5058961;28;8710;-52
2022/05/25 15:23:19;;;;;;;;;10.25;6.00;;;;;;;;5053659;28;8791;-52
2022/05/25 15:26:13;;;;;;;;;8.00;6.75;;;;;;;;5057120;28;8781;-51
2022/05/25 15:29:11;;;;;;;;;2.75;2.00;;;;;;;;5055844;28;8777;-52
2022/05/25 15:31:56;;;;;;;;;25.50;21.50;;;;;;;;5068969;28;8816;-51
2022/05/25 15:34:40;;;;;;;;;8.25;5.25;;;;;;;;5065144;28;8805;-50
2022/05/25 15:37:27;;;;;;;;;11.50;8.75;;;;;;;;5064950;28;8790;-52
2022/05/25 15:40:12;;;;;;;;;12.50;12.00;;;;;;;;5057196;28;8840;-52
2022/05/25 15:42:56;;;;;;;;;5.50;4.00;;;;;;;;5050416;28;8943;-52
2022/05/25 15:45:41;;;;;;;;;1.25;0.50;;;;;;;;5048127;28;8819;-52
2022/05/25 15:48:26;;;;;;;;;7.00;2.00;;;;;;;;5051508;28;8808;-51
2022/05/25 15:51:12;;;;;;;;;0.75;0.75;;;;;;;;5052733;28;8819;-50
2022/05/25 15:53:58;;;;;;;;;2.75;2.00;;;;;;;;5058681;28;8790;-51
2022/05/25 15:56:42;;;;;;;;;1.75;1.75;;;;;;;;5055576;28;8788;-53
2022/05/25 15:59:27;;;;;;;;;1.25;0.50;;;;;;;;5056955;28;8783;-52
2022/05/25 16:02:13;;;;;;;;;2.50;1.00;;;;;;;;5048763;28;8826;-53
2022/05/25 16:04:57;;;;;;;;;1.00;0.00;;;;;;;;5055046;28;9564;-52
2022/05/25 16:10:45;;;;;;;;;4.00;3.00;;;;;;;;5050056;28;8883;-53
2022/05/25 16:13:30;;;;;;;;;3.00;0.00;;;;;;;;5057066;28;8804;-53
2022/05/25 16:16:14;;;;;;;;;2.50;2.25;;;;;;;;5046000;28;9565;-51
2022/05/25 16:18:59;;;;;;;;;1.00;1.00;;;;;;;;5053951;28;8824;-52
2022/05/25 16:21:44;;;;;;;;;2.00;1.00;;;;;;;;5050159;28;8801;-53
2022/05/25 16:24:28;;;;;;;;;0.75;0.00;;;;;;;;5054468;28;8955;-51
2022/05/25 16:27:13;;;;;;;;;2.00;0.75;;;;;;;;5059196;28;8801;-53
2022/05/25 16:29:57;;;;;;;;;1.50;0.00;;;;;;;;5068615;28;9534;-53
2022/05/25 16:32:42;;;;;;;;;0.00;0.00;;;;;;;;5056616;28;8813;-51
2022/05/25 16:35:26;;;;;;;;;6.50;1.50;;;;;;;;5058718;28;8795;-53
2022/05/25 16:38:11;;;;;;;;;3.25;2.00;;;;;;;;5053387;28;8793;-53
2022/05/25 16:40:55;;;;;;;;;4.00;1.75;;;;;;;;5050615;28;8804;-53
2022/05/25 16:43:40;;;;;;;;;3.50;2.25;;;;;;;;5072055;28;8790;-51
2022/05/25 16:46:25;;;;;;;;;3.75;1.75;;;;;;;;5066285;28;8791;-53
2022/05/25 16:49:09;;;;;;;;;4.00;3.00;;;;;;;;5047294;28;8815;-51
2022/05/25 16:51:53;;;;;;;;;4.25;1.50;;;;;;;;5061865;28;8842;-52
2022/05/25 16:54:38;;;;;;;;;4.00;2.25;;;;;;;;5056719;28;8768;-52
2022/05/25 16:57:22;;;;;;;;;4.50;1.50;;;;;;;;5059089;28;8778;-52
2022/05/25 17:00:08;;;;;;;;;4.00;1.00;;;;;;;;5057623;28;8765;-54
2022/05/25 17:02:53;;;;;;;;;2.00;1.00;;;;;;;;5065580;28;9684;-53
2022/05/25 17:05:37;;;;;;;;;1.00;1.00;;;;;;;;5051565;28;8792;-52
2022/05/25 17:08:24;;;;;;;;;3.25;2.00;;;;;;;;5064949;28;8790;-52
2022/05/25 17:11:10;;;;;;;;;1.00;0.50;;;;;;;;5054770;28;8950;-52
2022/05/25 17:13:54;;;;;;;;;3.00;1.25;;;;;;;;5048350;28;8799;-54
2022/05/25 17:16:39;;;;;;;;;3.00;1.25;;;;;;;;5047334;28;8804;-54
2022/05/25 17:22:26;;;;;;;;;1.50;0.00;;;;;;;;5051676;28;8796;-54
2022/05/25 17:25:11;;;;;;;;;2.25;0.00;;;;;;;;5050243;28;8787;-53